sensor_id;sensor_type;location;lat;lon;timestamp;temperature;humidity
18577;DHT22;9418;52.694;13.294;2023-04-19T00:00:56;6.10;79.10
18577;DHT22;9418;52.694;13.294;2023-04-19T00:03:23;6.10;27.30
18577;DHT22;9418;52.694;13.294;2023-04-19T00:05:51;6.10;32.10
18577;DHT22;9418;52.694;13.294;2023-04-19T00:08:19;6.00;43.10
18577;DHT22;9418;52.694;13.294;2023-04-19T00:10:45;6.00;56.70
18577;DHT22;9418;52.694;13.294;2023-04-19T00:13:12;6.00;58.20
18577;DHT22;9418;52.694;13.294;2023-04-19T00:15:39;6.00;67.60
18577;DHT22;9418;52.694;13.294;2023-04-19T00:18:05;5.90;63.50
18577;DHT22;9418;52.694;13.294;2023-04-19T00:20:32;5.90;67.70
18577;DHT22;9418;52.694;13.294;2023-04-19T00:23:00;5.80;76.50
18577;DHT22;9418;52.694;13.294;2023-04-19T00:25:26;5.70;75.10
18577;DHT22;9418;52.694;13.294;2023-04-19T00:27:55;5.70;79.60
18577;DHT22;9418;52.694;13.294;2023-04-19T00:30:21;5.60;80.90
18577;DHT22;9418;52.694;13.294;2023-04-19T00:32:48;5.50;81.80
18577;DHT22;9418;52.694;13.294;2023-04-19T00:35:15;5.40;76.60
18577;DHT22;9418;52.694;13.294;2023-04-19T00:37:41;5.30;75.60
18577;DHT22;9418;52.694;13.294;2023-04-19T00:40:10;5.30;68.40
18577;DHT22;9418;52.694;13.294;2023-04-19T00:42:36;5.20;71.20
18577;DHT22;9418;52.694;13.294;2023-04-19T00:45:04;5.20;62.30
18577;DHT22;9418;52.694;13.294;2023-04-19T00:47:31;5.10;63.60
18577;DHT22;9418;52.694;13.294;2023-04-19T00:49:58;5.00;59.30
18577;DHT22;9418;52.694;13.294;2023-04-19T00:52:24;4.90;53.40
18577;DHT22;9418;52.694;13.294;2023-04-19T00:54:51;4.90;48.40
18577;DHT22;9418;52.694;13.294;2023-04-19T00:57:19;4.80;46.30
18577;DHT22;9418;52.694;13.294;2023-04-19T00:59:47;4.70;48.40
18577;DHT22;9418;52.694;13.294;2023-04-19T01:02:13;4.70;43.10
18577;DHT22;9418;52.694;13.294;2023-04-19T01:04:40;4.70;41.80
18577;DHT22;9418;52.694;13.294;2023-04-19T01:07:07;4.60;41.80
18577;DHT22;9418;52.694;13.294;2023-04-19T01:09:34;4.60;39.10
18577;DHT22;9418;52.694;13.294;2023-04-19T01:12:01;4.50;35.30
18577;DHT22;9418;52.694;13.294;2023-04-19T01:14:29;4.50;37.10
18577;DHT22;9418;52.694;13.294;2023-04-19T01:16:56;4.50;31.40
18577;DHT22;9418;52.694;13.294;2023-04-19T01:19:22;4.40;34.40
18577;DHT22;9418;52.694;13.294;2023-04-19T01:21:49;4.40;25.40
18577;DHT22;9418;52.694;13.294;2023-04-19T01:24:18;4.40;28.30
18577;DHT22;9418;52.694;13.294;2023-04-19T01:26:44;4.40;27.00
18577;DHT22;9418;52.694;13.294;2023-04-19T01:29:11;4.40;21.10
18577;DHT22;9418;52.694;13.294;2023-04-19T01:31:38;4.30;21.90
18577;DHT22;9418;52.694;13.294;2023-04-19T01:34:04;4.30;99.90
18577;DHT22;9418;52.694;13.294;2023-04-19T01:36:31;4.30;93.00
18577;DHT22;9418;52.694;13.294;2023-04-19T01:38:57;4.20;93.60
18577;DHT22;9418;52.694;13.294;2023-04-19T01:41:25;4.10;99.90
18577;DHT22;9418;52.694;13.294;2023-04-19T01:43:54;4.10;99.90
18577;DHT22;9418;52.694;13.294;2023-04-19T01:46:20;4.10;99.90
18577;DHT22;9418;52.694;13.294;2023-04-19T01:48:47;4.10;99.90
18577;DHT22;9418;52.694;13.294;2023-04-19T01:51:13;4.10;99.90
18577;DHT22;9418;52.694;13.294;2023-04-19T01:53:41;4.00;99.90
18577;DHT22;9418;52.694;13.294;2023-04-19T01:56:08;4.00;99.90
18577;DHT22;9418;52.694;13.294;2023-04-19T01:58:36;3.90;99.90
18577;DHT22;9418;52.694;13.294;2023-04-19T02:01:02;3.90;99.90
18577;DHT22;9418;52.694;13.294;2023-04-19T02:03:29;3.90;99.90
18577;DHT22;9418;52.694;13.294;2023-04-19T02:05:55;3.80;99.90
18577;DHT22;9418;52.694;13.294;2023-04-19T02:08:22;3.80;99.90
18577;DHT22;9418;52.694;13.294;2023-04-19T02:10:49;3.80;99.90
18577;DHT22;9418;52.694;13.294;2023-04-19T02:13:15;3.70;99.90
18577;DHT22;9418;52.694;13.294;2023-04-19T02:15:43;3.70;99.90
18577;DHT22;9418;52.694;13.294;2023-04-19T02:18:10;3.70;99.90
18577;DHT22;9418;52.694;13.294;2023-04-19T02:20:37;3.70;99.90
18577;DHT22;9418;52.694;13.294;2023-04-19T02:23:04;3.60;99.90
18577;DHT22;9418;52.694;13.294;2023-04-19T02:25:31;3.60;99.90
18577;DHT22;9418;52.694;13.294;2023-04-19T02:27:57;3.60;99.90
18577;DHT22;9418;52.694;13.294;2023-04-19T02:30:24;3.50;99.90
18577;DHT22;9418;52.694;13.294;2023-04-19T02:32:52;3.50;99.90
18577;DHT22;9418;52.694;13.294;2023-04-19T02:35:19;3.40;99.90
18577;DHT22;9418;52.694;13.294;2023-04-19T02:37:46;3.40;99.90
18577;DHT22;9418;52.694;13.294;2023-04-19T02:40:12;3.30;99.90
18577;DHT22;9418;52.694;13.294;2023-04-19T02:42:39;3.30;99.90
18577;DHT22;9418;52.694;13.294;2023-04-19T02:45:06;3.30;99.90
18577;DHT22;9418;52.694;13.294;2023-04-19T02:47:33;3.20;99.90
18577;DHT22;9418;52.694;13.294;2023-04-19T02:50:01;3.20;99.90
18577;DHT22;9418;52.694;13.294;2023-04-19T02:52:28;3.20;89.60
18577;DHT22;9418;52.694;13.294;2023-04-19T02:54:54;3.30;86.60
18577;DHT22;9418;52.694;13.294;2023-04-19T02:57:21;3.20;82.70
18577;DHT22;9418;52.694;13.294;2023-04-19T02:59:47;3.20;64.60
18577;DHT22;9418;52.694;13.294;2023-04-19T03:02:14;3.20;62.10
18577;DHT22;9418;52.694;13.294;2023-04-19T03:04:41;3.20;59.50
18577;DHT22;9418;52.694;13.294;2023-04-19T03:07:09;3.10;53.80
18577;DHT22;9418;52.694;13.294;2023-04-19T03:09:36;3.10;46.50
18577;DHT22;9418;52.694;13.294;2023-04-19T03:12:03;3.10;51.70
18577;DHT22;9418;52.694;13.294;2023-04-19T03:14:30;3.10;42.50
18577;DHT22;9418;52.694;13.294;2023-04-19T03:16:58;3.00;42.60
18577;DHT22;9418;52.694;13.294;2023-04-19T03:19:24;2.90;39.30
18577;DHT22;9418;52.694;13.294;2023-04-19T03:21:51;2.90;30.20
18577;DHT22;9418;52.694;13.294;2023-04-19T03:24:19;2.90;99.90
18577;DHT22;9418;52.694;13.294;2023-04-19T03:26:45;2.90;99.90
18577;DHT22;9418;52.694;13.294;2023-04-19T03:29:12;2.80;99.90
18577;DHT22;9418;52.694;13.294;2023-04-19T03:31:39;2.90;99.90
18577;DHT22;9418;52.694;13.294;2023-04-19T03:34:06;2.90;99.90
18577;DHT22;9418;52.694;13.294;2023-04-19T03:36:32;2.90;99.90
18577;DHT22;9418;52.694;13.294;2023-04-19T03:38:59;2.90;99.90
18577;DHT22;9418;52.694;13.294;2023-04-19T03:41:27;2.80;99.90
18577;DHT22;9418;52.694;13.294;2023-04-19T03:43:53;2.90;99.90
18577;DHT22;9418;52.694;13.294;2023-04-19T03:46:20;2.80;99.90
18577;DHT22;9418;52.694;13.294;2023-04-19T03:48:47;2.90;99.90
18577;DHT22;9418;52.694;13.294;2023-04-19T03:51:13;2.90;99.90
18577;DHT22;9418;52.694;13.294;2023-04-19T03:53:40;3.00;99.90
18577;DHT22;9418;52.694;13.294;2023-04-19T03:56:07;2.90;99.90
18577;DHT22;9418;52.694;13.294;2023-04-19T03:58:35;2.80;99.90
18577;DHT22;9418;52.694;13.294;2023-04-19T04:01:02;2.90;99.90
18577;DHT22;9418;52.694;13.294;2023-04-19T04:03:29;2.80;99.90
18577;DHT22;9418;52.694;13.294;2023-04-19T04:05:57;2.70;99.90
18577;DHT22;9418;52.694;13.294;2023-04-19T04:08:23;2.70;99.90
18577;DHT22;9418;52.694;13.294;2023-04-19T04:10:50;2.60;99.90
18577;DHT22;9418;52.694;13.294;2023-04-19T04:13:16;2.60;99.90
18577;DHT22;9418;52.694;13.294;2023-04-19T04:15:44;2.60;99.90
18577;DHT22;9418;52.694;13.294;2023-04-19T04:18:11;2.60;99.90
18577;DHT22;9418;52.694;13.294;2023-04-19T04:20:37;2.60;99.90
18577;DHT22;9418;52.694;13.294;2023-04-19T04:23:04;2.60;99.90
18577;DHT22;9418;52.694;13.294;2023-04-19T04:25:31;2.60;99.90
18577;DHT22;9418;52.694;13.294;2023-04-19T04:28:01;2.60;99.90
18577;DHT22;9418;52.694;13.294;2023-04-19T04:30:28;2.60;99.90
18577;DHT22;9418;52.694;13.294;2023-04-19T04:32:56;2.60;99.90
18577;DHT22;9418;52.694;13.294;2023-04-19T04:35:23;2.60;99.90
18577;DHT22;9418;52.694;13.294;2023-04-19T04:37:50;2.60;99.90
18577;DHT22;9418;52.694;13.294;2023-04-19T04:40:18;2.70;99.90
18577;DHT22;9418;52.694;13.294;2023-04-19T04:42:45;2.70;99.90
18577;DHT22;9418;52.694;13.294;2023-04-19T04:45:12;2.80;99.90
18577;DHT22;9418;52.694;13.294;2023-04-19T04:47:42;2.80;99.90
18577;DHT22;9418;52.694;13.294;2023-04-19T04:50:11;2.90;99.90
18577;DHT22;9418;52.694;13.294;2023-04-19T04:52:38;3.00;99.90
18577;DHT22;9418;52.694;13.294;2023-04-19T04:55:05;3.10;99.90
18577;DHT22;9418;52.694;13.294;2023-04-19T04:57:32;3.10;99.90
18577;DHT22;9418;52.694;13.294;2023-04-19T04:59:59;3.20;99.90
18577;DHT22;9418;52.694;13.294;2023-04-19T05:02:26;3.20;99.90
18577;DHT22;9418;52.694;13.294;2023-04-19T05:04:53;3.30;99.90
18577;DHT22;9418;52.694;13.294;2023-04-19T05:07:20;3.40;99.90
18577;DHT22;9418;52.694;13.294;2023-04-19T05:09:47;3.40;99.90
18577;DHT22;9418;52.694;13.294;2023-04-19T05:12:14;3.50;99.90
18577;DHT22;9418;52.694;13.294;2023-04-19T05:14:40;3.60;99.90
18577;DHT22;9418;52.694;13.294;2023-04-19T05:17:07;3.70;99.90
18577;DHT22;9418;52.694;13.294;2023-04-19T05:19:33;3.80;99.90
18577;DHT22;9418;52.694;13.294;2023-04-19T05:22:00;3.80;99.90
18577;DHT22;9418;52.694;13.294;2023-04-19T05:24:28;3.90;99.90
18577;DHT22;9418;52.694;13.294;2023-04-19T05:26:54;4.00;99.90
18577;DHT22;9418;52.694;13.294;2023-04-19T05:29:21;4.10;99.90
18577;DHT22;9418;52.694;13.294;2023-04-19T05:31:48;4.20;99.90
18577;DHT22;9418;52.694;13.294;2023-04-19T05:34:14;4.30;99.90
18577;DHT22;9418;52.694;13.294;2023-04-19T05:36:41;4.40;99.90
18577;DHT22;9418;52.694;13.294;2023-04-19T05:39:07;4.40;99.90
18577;DHT22;9418;52.694;13.294;2023-04-19T05:41:35;4.60;99.90
18577;DHT22;9418;52.694;13.294;2023-04-19T05:44:02;4.60;99.90
18577;DHT22;9418;52.694;13.294;2023-04-19T05:46:29;4.70;99.90
18577;DHT22;9418;52.694;13.294;2023-04-19T05:48:56;4.70;23.60
18577;DHT22;9418;52.694;13.294;2023-04-19T05:51:22;4.80;29.00
18577;DHT22;9418;52.694;13.294;2023-04-19T05:53:49;4.90;24.60
18577;DHT22;9418;52.694;13.294;2023-04-19T05:56:15;5.00;31.40
18577;DHT22;9418;52.694;13.294;2023-04-19T05:58:43;5.10;39.80
18577;DHT22;9418;52.694;13.294;2023-04-19T06:01:10;5.20;51.10
18577;DHT22;9418;52.694;13.294;2023-04-19T06:03:37;5.30;50.60
18577;DHT22;9418;52.694;13.294;2023-04-19T06:06:03;5.30;63.10
18577;DHT22;9418;52.694;13.294;2023-04-19T06:08:30;5.50;62.10
18577;DHT22;9418;52.694;13.294;2023-04-19T06:10:57;5.50;76.70
18577;DHT22;9418;52.694;13.294;2023-04-19T06:13:24;5.70;71.00
18577;DHT22;9418;52.694;13.294;2023-04-19T06:15:52;6.10;76.40
18577;DHT22;9418;52.694;13.294;2023-04-19T06:18:19;6.20;99.90
18577;DHT22;9418;52.694;13.294;2023-04-19T06:20:45;6.30;99.90
18577;DHT22;9418;52.694;13.294;2023-04-19T06:23:12;6.40;99.90
18577;DHT22;9418;52.694;13.294;2023-04-19T06:25:39;6.50;99.90
18577;DHT22;9418;52.694;13.294;2023-04-19T06:28:05;6.60;99.90
18577;DHT22;9418;52.694;13.294;2023-04-19T06:30:32;6.80;99.90
18577;DHT22;9418;52.694;13.294;2023-04-19T06:33:00;7.10;99.90
18577;DHT22;9418;52.694;13.294;2023-04-19T06:35:27;7.00;99.90
18577;DHT22;9418;52.694;13.294;2023-04-19T06:37:53;7.30;99.90
18577;DHT22;9418;52.694;13.294;2023-04-19T06:40:20;7.30;99.90
18577;DHT22;9418;52.694;13.294;2023-04-19T06:42:47;7.20;99.90
18577;DHT22;9418;52.694;13.294;2023-04-19T06:45:13;7.30;99.90
18577;DHT22;9418;52.694;13.294;2023-04-19T06:47:40;7.60;99.90
18577;DHT22;9418;52.694;13.294;2023-04-19T06:50:09;7.90;99.90
18577;DHT22;9418;52.694;13.294;2023-04-19T06:52:36;8.40;99.90
18577;DHT22;9418;52.694;13.294;2023-04-19T06:55:03;8.40;51.50
18577;DHT22;9418;52.694;13.294;2023-04-19T06:57:30;8.50;47.10
18577;DHT22;9418;52.694;13.294;2023-04-19T06:59:56;8.60;55.50
18577;DHT22;9418;52.694;13.294;2023-04-19T07:02:23;8.60;74.50
18577;DHT22;9418;52.694;13.294;2023-04-19T07:04:50;8.80;74.60
18577;DHT22;9418;52.694;13.294;2023-04-19T07:07:18;8.30;88.10
18577;DHT22;9418;52.694;13.294;2023-04-19T07:09:44;8.40;82.20
18577;DHT22;9418;52.694;13.294;2023-04-19T07:12:11;8.70;86.60
18577;DHT22;9418;52.694;13.294;2023-04-19T07:14:37;9.00;84.20
18577;DHT22;9418;52.694;13.294;2023-04-19T07:17:04;9.00;99.90
18577;DHT22;9418;52.694;13.294;2023-04-19T07:19:30;9.10;99.90
18577;DHT22;9418;52.694;13.294;2023-04-19T07:21:57;9.40;99.90
18577;DHT22;9418;52.694;13.294;2023-04-19T07:24:25;9.50;99.90
18577;DHT22;9418;52.694;13.294;2023-04-19T07:26:54;9.40;99.90
18577;DHT22;9418;52.694;13.294;2023-04-19T07:29:20;9.60;99.90
18577;DHT22;9418;52.694;13.294;2023-04-19T07:31:47;9.50;99.90
18577;DHT22;9418;52.694;13.294;2023-04-19T07:34:13;9.40;99.90
18577;DHT22;9418;52.694;13.294;2023-04-19T07:36:40;9.50;99.90
18577;DHT22;9418;52.694;13.294;2023-04-19T07:39:06;9.80;99.90
18577;DHT22;9418;52.694;13.294;2023-04-19T07:41:35;9.80;99.90
18577;DHT22;9418;52.694;13.294;2023-04-19T07:44:01;10.10;99.90
18577;DHT22;9418;52.694;13.294;2023-04-19T07:46:28;10.10;99.90
18577;DHT22;9418;52.694;13.294;2023-04-19T07:48:54;10.20;99.90
18577;DHT22;9418;52.694;13.294;2023-04-19T07:51:21;10.40;99.90
18577;DHT22;9418;52.694;13.294;2023-04-19T07:53:49;10.60;99.90
18577;DHT22;9418;52.694;13.294;2023-04-19T07:56:15;10.90;99.90
18577;DHT22;9418;52.694;13.294;2023-04-19T07:58:45;11.00;99.90
18577;DHT22;9418;52.694;13.294;2023-04-19T08:01:11;11.30;99.90
18577;DHT22;9418;52.694;13.294;2023-04-19T08:03:38;11.20;99.90
18577;DHT22;9418;52.694;13.294;2023-04-19T08:06:06;11.10;99.90
18577;DHT22;9418;52.694;13.294;2023-04-19T08:08:33;11.60;99.90
18577;DHT22;9418;52.694;13.294;2023-04-19T08:11:00;11.60;99.90
18577;DHT22;9418;52.694;13.294;2023-04-19T08:13:27;11.60;99.90
18577;DHT22;9418;52.694;13.294;2023-04-19T08:15:55;11.30;99.90
18577;DHT22;9418;52.694;13.294;2023-04-19T08:18:22;11.30;99.90
18577;DHT22;9418;52.694;13.294;2023-04-19T08:20:49;11.80;99.90
18577;DHT22;9418;52.694;13.294;2023-04-19T08:23:16;11.80;99.90
18577;DHT22;9418;52.694;13.294;2023-04-19T08:25:43;12.10;99.90
18577;DHT22;9418;52.694;13.294;2023-04-19T08:28:10;12.20;99.90
18577;DHT22;9418;52.694;13.294;2023-04-19T08:30:37;12.20;99.90
18577;DHT22;9418;52.694;13.294;2023-04-19T08:33:05;12.30;99.90
18577;DHT22;9418;52.694;13.294;2023-04-19T08:35:33;12.30;99.90
18577;DHT22;9418;52.694;13.294;2023-04-19T08:38:00;12.20;99.90
18577;DHT22;9418;52.694;13.294;2023-04-19T08:40:27;11.80;99.90
18577;DHT22;9418;52.694;13.294;2023-04-19T08:42:55;12.10;99.90
18577;DHT22;9418;52.694;13.294;2023-04-19T08:45:26;12.40;99.90
18577;DHT22;9418;52.694;13.294;2023-04-19T08:47:53;13.10;99.90
18577;DHT22;9418;52.694;13.294;2023-04-19T08:50:22;13.50;99.90
18577;DHT22;9418;52.694;13.294;2023-04-19T08:52:49;12.50;99.90
18577;DHT22;9418;52.694;13.294;2023-04-19T08:55:16;12.70;99.90
18577;DHT22;9418;52.694;13.294;2023-04-19T08:57:43;13.20;99.90
18577;DHT22;9418;52.694;13.294;2023-04-19T09:00:10;12.40;99.90
18577;DHT22;9418;52.694;13.294;2023-04-19T09:02:45;12.00;99.90
18577;DHT22;9418;52.694;13.294;2023-04-19T09:05:14;11.70;99.90
18577;DHT22;9418;52.694;13.294;2023-04-19T09:07:42;11.60;99.90
18577;DHT22;9418;52.694;13.294;2023-04-19T09:10:10;11.20;99.90
18577;DHT22;9418;52.694;13.294;2023-04-19T09:12:38;11.70;99.90
18577;DHT22;9418;52.694;13.294;2023-04-19T09:15:06;11.80;99.90
18577;DHT22;9418;52.694;13.294;2023-04-19T09:17:34;12.80;99.90
18577;DHT22;9418;52.694;13.294;2023-04-19T09:20:01;13.80;99.90
18577;DHT22;9418;52.694;13.294;2023-04-19T09:22:29;14.70;99.90
18577;DHT22;9418;52.694;13.294;2023-04-19T09:24:58;15.00;99.90
18577;DHT22;9418;52.694;13.294;2023-04-19T09:27:27;14.50;99.90
18577;DHT22;9418;52.694;13.294;2023-04-19T09:29:54;14.80;99.90
18577;DHT22;9418;52.694;13.294;2023-04-19T09:32:21;15.00;99.90
18577;DHT22;9418;52.694;13.294;2023-04-19T09:34:53;14.70;99.90
18577;DHT22;9418;52.694;13.294;2023-04-19T09:37:20;13.90;99.90
18577;DHT22;9418;52.694;13.294;2023-04-19T09:39:47;14.20;99.90
18577;DHT22;9418;52.694;13.294;2023-04-19T09:42:15;14.00;99.90
18577;DHT22;9418;52.694;13.294;2023-04-19T09:44:54;15.40;99.90
18577;DHT22;9418;52.694;13.294;2023-04-19T09:47:22;16.00;99.90
18577;DHT22;9418;52.694;13.294;2023-04-19T09:50:03;15.30;99.90
18577;DHT22;9418;52.694;13.294;2023-04-19T09:52:31;16.20;99.90
18577;DHT22;9418;52.694;13.294;2023-04-19T09:54:59;16.90;99.90
18577;DHT22;9418;52.694;13.294;2023-04-19T09:57:27;16.90;99.90
18577;DHT22;9418;52.694;13.294;2023-04-19T09:59:54;16.10;99.90
18577;DHT22;9418;52.694;13.294;2023-04-19T10:02:21;16.20;99.90
18577;DHT22;9418;52.694;13.294;2023-04-19T10:04:49;15.50;99.90
18577;DHT22;9418;52.694;13.294;2023-04-19T10:07:17;16.70;99.90
18577;DHT22;9418;52.694;13.294;2023-04-19T10:09:44;17.00;99.90
18577;DHT22;9418;52.694;13.294;2023-04-19T10:12:14;17.90;99.90
18577;DHT22;9418;52.694;13.294;2023-04-19T10:14:42;17.00;99.90
18577;DHT22;9418;52.694;13.294;2023-04-19T10:17:10;16.90;99.90
18577;DHT22;9418;52.694;13.294;2023-04-19T10:19:38;17.00;99.90
18577;DHT22;9418;52.694;13.294;2023-04-19T10:22:05;17.40;99.90
18577;DHT22;9418;52.694;13.294;2023-04-19T10:24:33;17.10;99.90
18577;DHT22;9418;52.694;13.294;2023-04-19T10:27:09;17.20;99.90
18577;DHT22;9418;52.694;13.294;2023-04-19T10:29:58;17.10;99.90
18577;DHT22;9418;52.694;13.294;2023-04-19T10:32:26;16.70;99.90
18577;DHT22;9418;52.694;13.294;2023-04-19T10:34:53;15.90;99.90
18577;DHT22;9418;52.694;13.294;2023-04-19T10:37:24;16.20;99.90
18577;DHT22;9418;52.694;13.294;2023-04-19T10:39:51;15.80;99.90
18577;DHT22;9418;52.694;13.294;2023-04-19T10:42:18;15.30;99.90
18577;DHT22;9418;52.694;13.294;2023-04-19T10:47:46;15.50;99.90
18577;DHT22;9418;52.694;13.294;2023-04-19T10:50:15;16.30;99.90
18577;DHT22;9418;52.694;13.294;2023-04-19T10:52:42;15.70;99.90
18577;DHT22;9418;52.694;13.294;2023-04-19T10:55:09;16.70;99.90
18577;DHT22;9418;52.694;13.294;2023-04-19T10:58:01;16.90;99.90
18577;DHT22;9418;52.694;13.294;2023-04-19T11:00:28;16.50;99.90
18577;DHT22;9418;52.694;13.294;2023-04-19T11:02:58;15.70;99.90
18577;DHT22;9418;52.694;13.294;2023-04-19T11:05:25;15.40;99.90
18577;DHT22;9418;52.694;13.294;2023-04-19T11:07:52;15.00;99.90
18577;DHT22;9418;52.694;13.294;2023-04-19T11:10:27;14.50;99.90
18577;DHT22;9418;52.694;13.294;2023-04-19T11:12:54;14.20;99.90
18577;DHT22;9418;52.694;13.294;2023-04-19T11:15:21;14.40;99.90
18577;DHT22;9418;52.694;13.294;2023-04-19T11:17:49;14.40;99.90
18577;DHT22;9418;52.694;13.294;2023-04-19T11:20:21;14.40;99.90
18577;DHT22;9418;52.694;13.294;2023-04-19T11:22:48;14.40;99.90
18577;DHT22;9418;52.694;13.294;2023-04-19T11:25:16;14.20;99.90
18577;DHT22;9418;52.694;13.294;2023-04-19T11:27:44;14.00;99.90
18577;DHT22;9418;52.694;13.294;2023-04-19T11:30:13;13.90;99.90
18577;DHT22;9418;52.694;13.294;2023-04-19T11:32:45;13.90;99.90
18577;DHT22;9418;52.694;13.294;2023-04-19T11:35:12;14.40;99.90
18577;DHT22;9418;52.694;13.294;2023-04-19T11:37:40;14.40;99.90
18577;DHT22;9418;52.694;13.294;2023-04-19T11:40:08;14.30;99.90
18577;DHT22;9418;52.694;13.294;2023-04-19T11:42:35;14.10;99.90
18577;DHT22;9418;52.694;13.294;2023-04-19T11:45:03;14.40;99.90
18577;DHT22;9418;52.694;13.294;2023-04-19T11:47:29;14.20;99.90
18577;DHT22;9418;52.694;13.294;2023-04-19T11:53:09;14.50;99.90
18577;DHT22;9418;52.694;13.294;2023-04-19T11:55:36;14.10;99.90
18577;DHT22;9418;52.694;13.294;2023-04-19T11:58:05;14.00;99.90
18577;DHT22;9418;52.694;13.294;2023-04-19T12:00:34;13.40;99.90
18577;DHT22;9418;52.694;13.294;2023-04-19T12:03:00;13.80;99.90
18577;DHT22;9418;52.694;13.294;2023-04-19T12:05:28;13.90;99.90
18577;DHT22;9418;52.694;13.294;2023-04-19T12:08:03;14.00;99.90
18577;DHT22;9418;52.694;13.294;2023-04-19T12:10:31;13.50;99.90
18577;DHT22;9418;52.694;13.294;2023-04-19T12:12:58;13.80;99.90
18577;DHT22;9418;52.694;13.294;2023-04-19T12:15:40;13.80;99.90
18577;DHT22;9418;52.694;13.294;2023-04-19T12:18:07;13.30;99.90
18577;DHT22;9418;52.694;13.294;2023-04-19T12:20:36;13.50;99.90
18577;DHT22;9418;52.694;13.294;2023-04-19T12:23:04;14.10;99.90
18577;DHT22;9418;52.694;13.294;2023-04-19T12:25:38;14.80;99.90
18577;DHT22;9418;52.694;13.294;2023-04-19T12:28:08;14.90;99.90
18577;DHT22;9418;52.694;13.294;2023-04-19T12:30:35;14.40;99.90
18577;DHT22;9418;52.694;13.294;2023-04-19T12:33:02;14.60;99.90
18577;DHT22;9418;52.694;13.294;2023-04-19T12:35:34;14.60;99.90
18577;DHT22;9418;52.694;13.294;2023-04-19T12:38:01;14.80;99.90
18577;DHT22;9418;52.694;13.294;2023-04-19T12:40:29;15.10;99.90
18577;DHT22;9418;52.694;13.294;2023-04-19T12:42:56;16.10;99.90
18577;DHT22;9418;52.694;13.294;2023-04-19T12:45:23;15.60;99.90
18577;DHT22;9418;52.694;13.294;2023-04-19T12:47:49;16.20;99.90
18577;DHT22;9418;52.694;13.294;2023-04-19T12:50:16;16.20;99.90
18577;DHT22;9418;52.694;13.294;2023-04-19T12:52:43;16.80;99.90
18577;DHT22;9418;52.694;13.294;2023-04-19T12:55:10;16.70;99.90
18577;DHT22;9418;52.694;13.294;2023-04-19T12:57:38;16.90;99.90
18577;DHT22;9418;52.694;13.294;2023-04-19T13:00:07;17.30;99.90
18577;DHT22;9418;52.694;13.294;2023-04-19T13:02:50;17.10;99.90
18577;DHT22;9418;52.694;13.294;2023-04-19T13:05:16;16.90;21.80
18577;DHT22;9418;52.694;13.294;2023-04-19T13:07:43;15.90;87.20
18577;DHT22;9418;52.694;13.294;2023-04-19T13:10:10;16.10;85.00
18577;DHT22;9418;52.694;13.294;2023-04-19T13:12:38;16.30;94.80
18577;DHT22;9418;52.694;13.294;2023-04-19T13:15:08;16.80;85.70
18577;DHT22;9418;52.694;13.294;2023-04-19T13:17:39;16.40;93.40
18577;DHT22;9418;52.694;13.294;2023-04-19T13:20:07;15.90;99.90
18577;DHT22;9418;52.694;13.294;2023-04-19T13:22:35;16.10;91.30
18577;DHT22;9418;52.694;13.294;2023-04-19T13:25:01;15.50;94.20
18577;DHT22;9418;52.694;13.294;2023-04-19T13:27:28;15.50;99.90
18577;DHT22;9418;52.694;13.294;2023-04-19T13:29:56;15.20;99.90
18577;DHT22;9418;52.694;13.294;2023-04-19T13:32:23;15.10;99.90
18577;DHT22;9418;52.694;13.294;2023-04-19T13:34:49;14.40;99.90
18577;DHT22;9418;52.694;13.294;2023-04-19T13:37:16;14.60;99.90
18577;DHT22;9418;52.694;13.294;2023-04-19T13:39:42;14.00;99.90
18577;DHT22;9418;52.694;13.294;2023-04-19T13:42:10;13.70;99.90
18577;DHT22;9418;52.694;13.294;2023-04-19T13:44:38;13.60;99.90
18577;DHT22;9418;52.694;13.294;2023-04-19T13:47:06;13.70;99.90
18577;DHT22;9418;52.694;13.294;2023-04-19T13:49:32;13.90;99.90
18577;DHT22;9418;52.694;13.294;2023-04-19T13:51:59;14.00;99.90
18577;DHT22;9418;52.694;13.294;2023-04-19T13:54:25;13.40;99.90
18577;DHT22;9418;52.694;13.294;2023-04-19T13:56:52;13.30;99.90
18577;DHT22;9418;52.694;13.294;2023-04-19T13:59:18;12.80;99.90
18577;DHT22;9418;52.694;13.294;2023-04-19T14:01:46;13.10;99.90
18577;DHT22;9418;52.694;13.294;2023-04-19T14:04:14;13.20;99.90
18577;DHT22;9418;52.694;13.294;2023-04-19T14:06:40;13.40;99.90
18577;DHT22;9418;52.694;13.294;2023-04-19T14:09:07;13.60;99.90
18577;DHT22;9418;52.694;13.294;2023-04-19T14:11:33;13.30;99.90
18577;DHT22;9418;52.694;13.294;2023-04-19T14:14:02;13.40;99.90
18577;DHT22;9418;52.694;13.294;2023-04-19T14:16:28;13.90;99.90
18577;DHT22;9418;52.694;13.294;2023-04-19T14:18:55;14.10;99.90
18577;DHT22;9418;52.694;13.294;2023-04-19T14:21:23;14.00;99.90
18577;DHT22;9418;52.694;13.294;2023-04-19T14:23:49;13.90;99.90
18577;DHT22;9418;52.694;13.294;2023-04-19T14:26:16;13.40;99.90
18577;DHT22;9418;52.694;13.294;2023-04-19T14:28:43;13.60;99.90
18577;DHT22;9418;52.694;13.294;2023-04-19T14:31:09;13.60;99.90
18577;DHT22;9418;52.694;13.294;2023-04-19T14:33:36;13.20;99.90
18577;DHT22;9418;52.694;13.294;2023-04-19T14:36:05;13.30;99.90
18577;DHT22;9418;52.694;13.294;2023-04-19T14:38:34;13.20;99.90
18577;DHT22;9418;52.694;13.294;2023-04-19T14:41:00;12.50;99.90
18577;DHT22;9418;52.694;13.294;2023-04-19T14:43:27;12.10;99.90
18577;DHT22;9418;52.694;13.294;2023-04-19T14:45:54;11.60;99.90
18577;DHT22;9418;52.694;13.294;2023-04-19T14:48:21;11.30;99.90
18577;DHT22;9418;52.694;13.294;2023-04-19T14:50:48;11.10;99.90
18577;DHT22;9418;52.694;13.294;2023-04-19T14:53:15;10.60;99.90
18577;DHT22;9418;52.694;13.294;2023-04-19T14:55:43;10.20;99.90
18577;DHT22;9418;52.694;13.294;2023-04-19T14:58:09;9.80;99.90
18577;DHT22;9418;52.694;13.294;2023-04-19T15:00:36;9.40;85.20
18577;DHT22;9418;52.694;13.294;2023-04-19T15:03:03;9.20;28.90
18577;DHT22;9418;52.694;13.294;2023-04-19T15:05:33;8.70;99.90
18577;DHT22;9418;52.694;13.294;2023-04-19T15:08:00;8.40;26.70
18577;DHT22;9418;52.694;13.294;2023-04-19T15:10:27;8.00;99.90
18577;DHT22;9418;52.694;13.294;2023-04-19T15:12:55;7.90;99.90
18577;DHT22;9418;52.694;13.294;2023-04-19T15:15:22;7.50;99.90
18577;DHT22;9418;52.694;13.294;2023-04-19T15:17:48;7.40;99.90
18577;DHT22;9418;52.694;13.294;2023-04-19T15:20:15;7.20;99.90
18577;DHT22;9418;52.694;13.294;2023-04-19T15:22:42;7.10;99.90
18577;DHT22;9418;52.694;13.294;2023-04-19T15:25:09;7.10;99.90
18577;DHT22;9418;52.694;13.294;2023-04-19T15:27:36;6.80;99.90
18577;DHT22;9418;52.694;13.294;2023-04-19T15:30:05;6.90;99.90
18577;DHT22;9418;52.694;13.294;2023-04-19T15:32:32;6.80;99.90
18577;DHT22;9418;52.694;13.294;2023-04-19T15:35:00;6.70;99.90
18577;DHT22;9418;52.694;13.294;2023-04-19T15:37:27;6.60;99.90
18577;DHT22;9418;52.694;13.294;2023-04-19T15:39:54;6.50;99.90
18577;DHT22;9418;52.694;13.294;2023-04-19T15:42:20;6.50;99.90
18577;DHT22;9418;52.694;13.294;2023-04-19T15:44:47;6.40;99.90
18577;DHT22;9418;52.694;13.294;2023-04-19T15:47:15;6.50;97.90